createdAt,value
2023-04-22T00:00:00.000Z,6.08
2023-04-22T00:15:00.000Z,4.55
2023-04-22T00:30:00.000Z,4.49
2023-04-22T00:45:00.000Z,4.21
2023-04-22T01:00:00.000Z,4.52
2023-04-22T01:15:00.000Z,5.45
2023-04-22T01:30:00.000Z,5.08
2023-04-22T01:45:00.000Z,5.34
2023-04-22T02:00:00.000Z,5.66
2023-04-22T02:15:00.000Z,5.15
2023-04-22T02:30:00.000Z,5.08
2023-04-22T02:45:00.000Z,5.08
2023-04-22T03:00:00.000Z,4.85
2023-04-22T03:15:00.000Z,4.78
2023-04-22T03:30:00.000Z,4.67
2023-04-22T03:45:00.000Z,4.99
2023-04-22T04:00:00.000Z,4.62
2023-04-22T04:15:00.000Z,4.96
2023-04-22T04:30:00.000Z,4.74
2023-04-22T04:45:00.000Z,4.91
2023-04-22T05:00:00.000Z,4.96
2023-04-22T05:15:00.000Z,4.91
2023-04-22T05:30:00.000Z,4
2023-04-22T05:45:00.000Z,3.76
2023-04-22T06:00:00.000Z,3.35
2023-04-22T06:15:00.000Z,3.64
2023-04-22T06:30:00.000Z,3.42
2023-04-22T06:45:00.000Z,3.35
2023-04-22T07:00:00.000Z,3.16
2023-04-22T07:15:00.000Z,3.34
2023-04-22T07:30:00.000Z,3.22
2023-04-22T07:45:00.000Z,3.05
2023-04-22T08:00:00.000Z,3.21
2023-04-22T08:15:00.000Z,3.02
2023-04-22T08:30:00.000Z,2.58
2023-04-22T08:45:00.000Z,1.84
2023-04-22T09:00:00.000Z,2.06
2023-04-22T09:15:00.000Z,1.51
2023-04-22T09:30:00.000Z,1.72
2023-04-22T09:45:00.000Z,3.28
2023-04-22T10:00:00.000Z,3.04
2023-04-22T10:15:00.000Z,2.62
2023-04-22T10:30:00.000Z,2.51
2023-04-22T10:45:00.000Z,2.62
2023-04-22T11:00:00.000Z,3.02
2023-04-22T11:15:00.000Z,3.04
2023-04-22T11:30:00.000Z,2.85
2023-04-22T11:45:00.000Z,2.36
2023-04-22T12:00:00.000Z,2.06
2023-04-22T12:15:00.000Z,1.81
2023-04-22T12:30:00.000Z,2.01
2023-04-22T12:45:00.000Z,2.34
2023-04-22T13:00:00.000Z,2.48
2023-04-22T13:15:00.000Z,1.69
2023-04-22T13:30:00.000Z,1.99
2023-04-22T13:45:00.000Z,2.12
2023-04-22T14:00:00.000Z,1.33
2023-04-22T14:15:00.000Z,1.42
2023-04-22T14:30:00.000Z,1.47
2023-04-22T14:45:00.000Z,2.07
2023-04-22T15:00:00.000Z,1.52
2023-04-22T15:15:00.000Z,1.56
2023-04-22T15:30:00.000Z,2.08
2023-04-22T15:45:00.000Z,2.11
2023-04-22T16:00:00.000Z,3.65
2023-04-22T16:15:00.000Z,3.65
2023-04-22T16:30:00.000Z,5.76
2023-04-22T16:45:00.000Z,3.42
2023-04-22T17:00:00.000Z,3.51
2023-04-22T17:15:00.000Z,3.95
2023-04-22T17:30:00.000Z,3.87
2023-04-22T17:45:00.000Z,4.52
2023-04-22T18:00:00.000Z,4.33
2023-04-22T18:15:00.000Z,3.99
2023-04-22T18:30:00.000Z,3.42
2023-04-22T18:45:00.000Z,4.07
2023-04-22T19:00:00.000Z,4.12
2023-04-22T19:15:00.000Z,4.04
2023-04-22T19:30:00.000Z,4.61
2023-04-22T19:45:00.000Z,5.42
2023-04-22T20:00:00.000Z,5.68
2023-04-22T20:15:00.000Z,6.68
2023-04-22T20:30:00.000Z,4.75
2023-04-22T20:45:00.000Z,4.62
2023-04-22T21:00:00.000Z,5.51
2023-04-22T21:15:00.000Z,5.11
2023-04-22T21:30:00.000Z,5.22
2023-04-22T21:45:00.000Z,5.49
2023-04-22T22:00:00.000Z,6.4
2023-04-22T22:15:00.000Z,5.62
2023-04-22T22:30:00.000Z,5.18
2023-04-22T22:45:00.000Z,5.75
2023-04-22T23:00:00.000Z,5.33
2023-04-22T23:15:00.000Z,5.05
2023-04-22T23:30:00.000Z,5.07
2023-04-22T23:45:00.000Z,5.01
